Time;durP1;ratioP1;P1;durP2;ratioP2;P2;SDS_P1;SDS_P2;PMS_P1;PMS_P2;Temp;Humidity;BMP_temperature;BMP_pressure;BME280_temperature;BME280_humidity;BME280_pressure;Samples;Min_cycle;Max_cycle;Signal;HPM_P1;HPM_P2
2022/11/16 00:01:48;;;;;;;6.50;4.88;;;13.80;99.90;;;;;;5072093;28;20203;-62
2022/11/16 00:04:13;;;;;;;6.30;5.47;;;13.80;99.90;;;;;;5064153;28;20288;-63
2022/11/16 00:06:40;;;;;;;6.25;5.22;;;13.90;99.90;;;;;;5063276;28;20212;-63
2022/11/16 00:09:22;;;;;;;12.25;6.88;;;13.90;99.90;;;;;;5060473;28;20639;-64
2022/11/16 00:11:53;;;;;;;11.02;6.90;;;13.90;99.90;;;;;;5053183;28;20173;-63
2022/11/16 00:14:20;;;;;;;8.73;7.18;;;13.90;99.90;;;;;;5058623;28;20212;-64
2022/11/16 00:16:46;;;;;;;11.07;7.15;;;13.90;99.90;;;;;;5057418;28;20202;-64
2022/11/16 00:19:13;;;;;;;9.55;7.15;;;13.80;99.90;;;;;;5068559;28;20639;-63
2022/11/16 00:21:39;;;;;;;12.15;7.65;;;13.80;99.90;;;;;;5065742;28;20603;-63
2022/11/16 00:24:05;;;;;;;7.40;6.22;;;13.90;99.90;;;;;;5061937;28;20265;-63
2022/11/16 00:26:31;;;;;;;10.20;6.45;;;14.00;99.90;;;;;;5056748;28;20231;-64
2022/11/16 00:28:57;;;;;;;9.45;6.30;;;13.90;99.90;;;;;;5056866;28;20510;-64
2022/11/16 00:31:23;;;;;;;9.57;6.78;;;13.90;99.90;;;;;;5055397;28;20196;-62
2022/11/16 00:33:49;;;;;;;11.05;8.23;;;14.00;99.90;;;;;;5052702;28;20261;-63
2022/11/16 00:36:15;;;;;;;12.80;6.88;;;13.90;99.90;;;;;;5052803;28;20237;-63
2022/11/16 00:38:42;;;;;;;10.05;6.80;;;13.80;99.90;;;;;;5061586;28;20225;-63
2022/11/16 00:41:08;;;;;;;12.65;7.07;;;13.70;99.90;;;;;;5071229;28;20283;-63
2022/11/16 00:43:35;;;;;;;12.23;6.72;;;13.50;99.90;;;;;;5059048;28;20269;-63
2022/11/16 00:46:01;;;;;;;8.40;6.57;;;13.60;99.90;;;;;;5052612;28;20284;-63
2022/11/16 00:48:27;;;;;;;8.40;5.97;;;13.70;99.90;;;;;;5052207;28;20649;-63
2022/11/16 00:50:53;;;;;;;9.00;6.70;;;13.70;99.90;;;;;;5055706;28;20205;-63
2022/11/16 00:53:19;;;;;;;7.25;5.65;;;13.70;99.90;;;;;;5057602;28;20197;-65
2022/11/16 00:55:46;;;;;;;8.77;6.45;;;13.60;99.90;;;;;;5059315;28;20681;-64
2022/11/16 00:58:12;;;;;;;6.40;5.72;;;13.50;99.90;;;;;;5057114;28;20743;-64
2022/11/16 01:00:38;;;;;;;10.95;6.13;;;13.60;99.90;;;;;;5066294;28;20185;-64
2022/11/16 01:03:04;;;;;;;6.82;5.50;;;13.50;99.90;;;;;;5056614;28;20266;-63
2022/11/16 01:05:30;;;;;;;6.35;5.75;;;13.50;99.90;;;;;;5056536;28;20698;-64
2022/11/16 01:07:56;;;;;;;7.65;5.30;;;13.50;99.90;;;;;;5057187;28;20273;-65
2022/11/16 01:10:23;;;;;;;9.45;6.38;;;13.40;99.90;;;;;;5056640;28;20281;-64
2022/11/16 01:12:50;;;;;;;8.00;5.60;;;13.50;99.90;;;;;;5062841;28;20193;-64
2022/11/16 01:15:17;;;;;;;6.65;5.40;;;13.60;99.90;;;;;;5071045;28;20188;-64
2022/11/16 01:17:44;;;;;;;5.93;5.25;;;13.50;99.90;;;;;;5067410;28;20197;-64
2022/11/16 01:20:14;;;;;;;6.53;5.63;;;13.50;99.90;;;;;;5069621;28;20576;-65
2022/11/16 01:22:41;;;;;;;8.73;6.07;;;13.40;99.90;;;;;;5056540;28;20178;-63
2022/11/16 01:25:07;;;;;;;7.47;5.35;;;13.40;99.90;;;;;;5055675;28;20686;-64
2022/11/16 01:27:33;;;;;;;6.00;4.75;;;13.40;99.90;;;;;;5062856;28;20640;-63
2022/11/16 01:29:59;;;;;;;7.55;3.83;;;13.30;99.90;;;;;;5072604;28;20186;-64
2022/11/16 01:32:25;;;;;;;4.90;4.47;;;13.20;99.90;;;;;;5068596;28;20617;-64
2022/11/16 01:34:51;;;;;;;4.88;4.47;;;13.20;99.90;;;;;;5061052;28;20193;-64
2022/11/16 01:37:17;;;;;;;7.28;4.22;;;13.20;99.90;;;;;;5069340;28;20681;-64
2022/11/16 01:39:43;;;;;;;4.63;3.88;;;13.20;99.90;;;;;;5065932;28;20246;-64
2022/11/16 01:42:17;;;;;;;5.93;3.90;;;13.10;99.90;;;;;;5055957;28;20190;-64
2022/11/16 01:44:43;;;;;;;5.15;4.18;;;13.10;99.90;;;;;;5059870;28;20178;-64
2022/11/16 01:47:12;;;;;;;3.88;3.30;;;13.20;99.90;;;;;;5055988;28;20631;-64
2022/11/16 01:49:45;;;;;;;4.43;4.00;;;13.10;99.90;;;;;;5059822;28;20212;-64
2022/11/16 01:52:17;;;;;;;5.35;4.25;;;13.20;99.90;;;;;;5055793;28;20555;-61
2022/11/16 01:54:45;;;;;;;4.72;4.20;;;13.20;99.90;;;;;;5060399;28;20220;-63
2022/11/16 01:57:17;;;;;;;9.25;4.10;;;13.10;99.90;;;;;;5055158;28;20236;-63
2022/11/16 01:59:45;;;;;;;6.55;3.65;;;13.00;99.90;;;;;;5059252;28;20674;-62
2022/11/16 02:02:11;;;;;;;9.18;3.83;;;12.90;99.90;;;;;;5068138;28;20251;-62
2022/11/16 02:04:36;;;;;;;5.47;3.88;;;12.80;99.90;;;;;;5055175;28;20658;-63
2022/11/16 02:07:16;;;;;;;4.75;4.05;;;12.80;99.90;;;;;;5055385;28;20244;-63
2022/11/16 02:10:03;;;;;;;4.07;3.70;;;12.90;99.90;;;;;;5063665;28;20186;-63
2022/11/16 02:12:40;;;;;;;4.57;4.13;;;12.80;99.90;;;;;;5056110;28;20217;-63
2022/11/16 02:15:46;;;;;;;6.35;3.90;;;12.70;99.90;;;;;;5057486;28;20265;-62
2022/11/16 02:18:41;;;;;;;5.82;4.30;;;12.60;99.90;;;;;;5055640;28;20224;-63
2022/11/16 02:21:09;;;;;;;4.53;3.80;;;12.60;99.90;;;;;;5055419;28;20189;-62
2022/11/16 02:23:57;;;;;;;5.53;3.72;;;12.60;99.90;;;;;;5062119;28;20523;-63
2022/11/16 02:26:46;;;;;;;7.45;3.25;;;12.60;99.90;;;;;;5055468;28;20261;-63
2022/11/16 02:29:30;;;;;;;4.50;3.08;;;12.60;99.90;;;;;;5069718;28;20188;-63
2022/11/16 02:32:03;;;;;;;2.78;2.58;;;12.50;99.90;;;;;;5071057;28;20196;-62
2022/11/16 02:34:49;;;;;;;6.35;3.15;;;12.60;99.90;;;;;;5055513;28;20196;-62
2022/11/16 02:37:19;;;;;;;3.50;2.70;;;12.60;99.90;;;;;;5066844;28;20213;-64
2022/11/16 02:39:48;;;;;;;5.70;2.95;;;12.60;99.90;;;;;;5058789;28;20268;-63
2022/11/16 02:42:21;;;;;;;5.72;2.92;;;12.50;99.90;;;;;;5062433;28;20240;-63
2022/11/16 02:44:50;;;;;;;6.05;2.78;;;12.40;99.90;;;;;;5062453;28;20222;-63
2022/11/16 02:47:23;;;;;;;7.78;2.50;;;12.40;99.90;;;;;;5054983;28;20192;-63
2022/11/16 02:49:56;;;;;;;4.57;3.60;;;12.30;99.90;;;;;;5067725;28;20583;-63
2022/11/16 02:52:24;;;;;;;5.10;3.40;;;12.20;99.90;;;;;;5065371;28;20261;-65
2022/11/16 02:54:50;;;;;;;4.15;3.80;;;12.20;99.90;;;;;;5057461;28;20268;-63
2022/11/16 02:57:31;;;;;;;5.95;3.15;;;12.10;99.90;;;;;;5070797;28;20284;-63
2022/11/16 02:59:59;;;;;;;3.97;2.90;;;12.20;99.90;;;;;;5058218;28;20234;-62
2022/11/16 03:02:58;;;;;;;2.67;2.47;;;12.40;99.90;;;;;;5061569;28;20205;-63
2022/11/16 03:05:32;;;;;;;3.75;2.47;;;12.40;99.90;;;;;;5073451;28;20177;-63
2022/11/16 03:08:11;;;;;;;3.10;2.30;;;12.40;99.90;;;;;;5061093;28;20630;-62
2022/11/16 03:13:28;;;;;;;3.70;3.20;;;12.30;99.90;;;;;;5058830;28;20643;-63
2022/11/16 03:15:55;;;;;;;2.80;2.55;;;12.30;99.90;;;;;;5059940;28;20205;-62
2022/11/16 03:18:24;;;;;;;4.53;3.15;;;12.20;99.90;;;;;;5071872;28;20205;-65
2022/11/16 03:20:55;;;;;;;2.20;2.10;;;12.20;99.90;;;;;;5061646;28;20225;-63
2022/11/16 03:23:21;;;;;;;2.55;2.35;;;12.20;99.90;;;;;;5054181;28;20185;-63
2022/11/16 03:25:50;;;;;;;4.85;2.40;;;12.40;99.90;;;;;;5053916;28;20190;-64
2022/11/16 03:28:26;;;;;;;4.43;3.20;;;12.30;99.90;;;;;;5059462;28;20270;-62
2022/11/16 03:30:57;;;;;;;2.83;2.60;;;12.30;99.90;;;;;;5060748;28;20554;-63
2022/11/16 03:33:57;;;;;;;2.88;2.45;;;12.30;99.90;;;;;;5053512;28;20189;-63
2022/11/16 03:36:30;;;;;;;3.60;2.50;;;12.20;99.90;;;;;;5049873;28;20229;-63
2022/11/16 03:39:05;;;;;;;4.35;2.83;;;12.30;99.90;;;;;;5062380;28;20187;-63
2022/11/16 03:41:34;;;;;;;5.63;2.67;;;12.30;99.90;;;;;;5052690;28;20181;-63
2022/11/16 03:44:01;;;;;;;7.13;2.47;;;12.30;99.90;;;;;;5053076;28;20186;-63
2022/11/16 03:46:26;;;;;;;3.92;2.20;;;12.30;99.90;;;;;;5059296;28;20197;-63
2022/11/16 03:48:59;;;;;;;3.65;2.40;;;12.30;99.90;;;;;;5043723;28;20215;-63
2022/11/16 03:51:25;;;;;;;2.85;2.65;;;12.20;99.90;;;;;;5085623;28;20181;-63
2022/11/16 03:53:51;;;;;;;2.08;1.85;;;12.10;99.90;;;;;;5062210;28;20589;-63
2022/11/16 03:56:16;;;;;;;2.88;2.45;;;12.00;99.90;;;;;;5058776;28;20237;-63
2022/11/16 03:58:42;;;;;;;3.28;2.17;;;12.00;99.90;;;;;;5053226;28;20218;-63
2022/11/16 04:01:08;;;;;;;3.50;2.55;;;11.90;99.90;;;;;;5053552;28;20186;-63
2022/11/16 04:03:33;;;;;;;2.38;2.10;;;11.80;99.90;;;;;;5068306;28;20654;-63
2022/11/16 04:25:42;;;;;;;3.17;2.92;;;11.30;99.90;;;;;;5053817;28;20197;-63
2022/11/16 04:28:15;;;;;;;4.97;3.20;;;11.20;99.90;;;;;;5052519;28;20192;-63
2022/11/16 04:39:20;;;;;;;5.60;3.95;;;11.50;99.90;;;;;;5060856;28;20235;-63
2022/11/16 04:47:17;;;;;;;8.43;3.90;;;11.50;99.90;;;;;;5053291;28;20252;-62
2022/11/16 04:49:43;;;;;;;3.53;2.80;;;11.40;99.90;;;;;;5064495;28;20197;-62
2022/11/16 04:52:09;;;;;;;11.23;4.20;;;11.40;99.90;;;;;;5058344;28;20193;-62
2022/11/16 04:54:34;;;;;;;10.47;3.70;;;11.30;99.90;;;;;;5065030;28;20185;-62
2022/11/16 04:57:00;;;;;;;7.07;3.93;;;11.30;99.90;;;;;;5069987;28;20202;-62
2022/11/16 04:59:26;;;;;;;11.23;4.90;;;11.20;99.90;;;;;;5070868;28;20193;-62
2022/11/16 05:02:09;;;;;;;5.20;3.27;;;11.10;99.90;;;;;;5058006;28;20558;-63
2022/11/16 05:04:40;;;;;;;6.33;3.80;;;11.10;99.90;;;;;;5058224;28;20533;-63
2022/11/16 05:07:10;;;;;;;7.63;3.77;;;11.10;99.90;;;;;;5065011;28;20181;-63
2022/11/16 05:09:45;;;;;;;9.50;3.97;;;11.20;99.90;;;;;;5057279;28;20185;-62
2022/11/16 05:12:24;;;;;;;6.87;4.33;;;11.20;99.90;;;;;;5070072;28;20530;-62
2022/11/16 05:14:50;;;;;;;9.27;2.63;;;11.10;99.90;;;;;;5062735;28;20650;-63
2022/11/16 05:17:17;;;;;;;7.47;3.13;;;11.00;99.90;;;;;;5052252;28;20233;-63
2022/11/16 05:22:27;;;;;;;3.23;2.33;;;10.90;99.90;;;;;;5064852;28;20267;-63
2022/11/16 05:24:53;;;;;;;8.43;2.43;;;11.00;99.90;;;;;;5056566;28;20642;-63
2022/11/16 05:27:21;;;;;;;9.67;3.23;;;10.90;99.90;;;;;;5052044;28;20459;-63
2022/11/16 05:29:50;;;;;;;2.97;2.23;;;10.80;99.90;;;;;;5050574;28;20586;-62
2022/11/16 05:32:18;;;;;;;3.77;2.77;;;10.80;99.90;;;;;;5055141;28;20190;-62
2022/11/16 05:34:44;;;;;;;6.37;3.17;;;10.70;99.90;;;;;;5057507;28;20186;-63
2022/11/16 05:37:10;;;;;;;6.57;2.53;;;10.70;99.90;;;;;;5062683;28;20289;-63
2022/11/16 05:39:36;;;;;;;3.57;2.40;;;10.70;99.90;;;;;;5063778;28;20221;-63
2022/11/16 05:42:01;;;;;;;6.70;4.87;;;10.70;99.90;;;;;;5055722;28;20240;-63
2022/11/16 05:44:27;;;;;;;6.83;3.23;;;10.60;99.90;;;;;;5064429;28;20587;-64
2022/11/16 05:46:54;;;;;;;7.30;3.07;;;10.60;99.90;;;;;;5054737;28;20213;-63
2022/11/16 05:49:19;;;;;;;7.60;3.63;;;10.70;99.90;;;;;;5055496;28;20269;-63
2022/11/16 05:51:46;;;;;;;11.60;2.73;;;10.60;99.90;;;;;;5054715;28;20332;-63
2022/11/16 05:54:14;;;;;;;4.83;2.43;;;10.60;99.90;;;;;;5054753;28;20194;-63
2022/11/16 05:56:40;;;;;;;9.70;2.20;;;10.60;99.90;;;;;;5087898;28;20565;-62
2022/11/16 05:59:06;;;;;;;2.37;2.17;;;10.70;99.90;;;;;;5063626;28;20185;-62
2022/11/16 06:01:32;;;;;;;7.63;3.17;;;10.60;99.90;;;;;;5070743;28;20186;-63
2022/11/16 06:04:01;;;;;;;4.80;2.20;;;10.60;99.90;;;;;;5075050;28;20661;-63
2022/11/16 06:06:27;;;;;;;5.90;1.97;;;10.50;99.90;;;;;;5061058;28;20202;-63
2022/11/16 06:08:53;;;;;;;6.77;2.33;;;10.60;99.90;;;;;;5097334;28;20190;-63
2022/11/16 06:11:20;;;;;;;4.97;3.57;;;10.60;99.90;;;;;;5087984;28;20268;-63
2022/11/16 06:13:45;;;;;;;5.70;2.00;;;10.60;99.90;;;;;;5086916;28;20678;-63
2022/11/16 06:16:11;;;;;;;3.03;2.27;;;10.50;99.90;;;;;;5062368;28;20214;-63
2022/11/16 06:18:39;;;;;;;6.13;2.47;;;10.50;99.90;;;;;;5063671;28;20186;-63
2022/11/16 06:21:06;;;;;;;10.17;2.73;;;10.40;99.90;;;;;;5069048;28;20185;-64
2022/11/16 06:23:32;;;;;;;6.33;2.30;;;10.50;99.90;;;;;;5062128;28;20189;-63
2022/11/16 06:25:58;;;;;;;4.50;2.60;;;10.40;99.90;;;;;;5068038;28;20273;-63
2022/11/16 06:28:24;;;;;;;10.30;2.67;;;10.50;99.90;;;;;;5069666;28;20185;-63
2022/11/16 06:30:49;;;;;;;4.67;1.90;;;10.40;99.90;;;;;;5060922;28;20248;-63
2022/11/16 06:33:15;;;;;;;4.10;2.20;;;10.40;99.90;;;;;;5060058;28;20212;-63
2022/11/16 06:35:42;;;;;;;10.47;2.43;;;10.40;99.90;;;;;;5055038;28;20448;-63
2022/11/16 06:38:07;;;;;;;4.20;2.73;;;10.40;99.90;;;;;;5066694;28;20217;-64
2022/11/16 06:40:34;;;;;;;7.70;4.40;;;10.40;99.90;;;;;;5070405;28;20331;-63
2022/11/16 06:42:59;;;;;;;9.17;3.50;;;10.30;99.90;;;;;;5072796;28;20531;-63
2022/11/16 06:45:26;;;;;;;11.07;2.50;;;10.20;99.90;;;;;;5053468;28;20186;-63
2022/11/16 06:47:52;;;;;;;4.70;2.83;;;10.20;99.90;;;;;;5054851;28;20194;-63
2022/11/16 06:50:18;;;;;;;6.50;3.90;;;10.30;99.90;;;;;;5066210;28;20200;-63
2022/11/16 06:52:48;;;;;;;3.13;2.83;;;10.10;99.90;;;;;;5051370;28;20197;-64
2022/11/16 06:55:15;;;;;;;2.90;2.70;;;10.10;99.90;;;;;;5054297;28;20194;-62
2022/11/16 06:57:40;;;;;;;5.07;3.23;;;10.20;99.90;;;;;;5059690;28;20206;-62
2022/11/16 07:00:09;;;;;;;9.97;3.77;;;10.20;99.90;;;;;;5055283;28;20269;-62
2022/11/16 07:02:39;;;;;;;5.57;2.80;;;10.10;99.90;;;;;;5053256;28;20194;-62
2022/11/16 07:05:05;;;;;;;7.07;3.17;;;10.20;99.90;;;;;;5058402;28;20265;-65
2022/11/16 07:07:31;;;;;;;4.60;3.23;;;10.20;99.90;;;;;;5053404;28;20669;-63
2022/11/16 07:09:58;;;;;;;9.63;3.23;;;10.10;99.90;;;;;;5059710;28;20182;-62
2022/11/16 07:12:23;;;;;;;8.10;3.63;;;10.10;99.90;;;;;;5053154;28;20202;-64
2022/11/16 07:14:49;;;;;;;5.43;3.27;;;10.20;99.90;;;;;;5063458;28;20261;-64
2022/11/16 07:17:15;;;;;;;4.40;2.73;;;10.20;99.90;;;;;;5057029;28;20205;-64
2022/11/16 07:19:40;;;;;;;5.67;3.13;;;10.10;99.90;;;;;;5057159;28;20186;-63
2022/11/16 07:22:09;;;;;;;5.57;2.93;;;10.10;99.90;;;;;;5072371;28;20192;-63
2022/11/16 07:24:34;;;;;;;9.53;3.33;;;10.10;99.90;;;;;;5074653;28;20189;-63
2022/11/16 07:27:00;;;;;;;4.53;3.10;;;10.10;99.90;;;;;;5060690;28;20193;-62
2022/11/16 07:29:26;;;;;;;5.97;3.03;;;10.10;99.90;;;;;;5060349;28;20269;-62
2022/11/16 07:31:52;;;;;;;5.57;2.43;;;10.10;99.90;;;;;;5054577;28;20197;-63
2022/11/16 07:34:18;;;;;;;5.23;2.60;;;10.20;99.90;;;;;;5058960;28;20189;-62
2022/11/16 07:36:43;;;;;;;4.03;2.80;;;10.20;99.90;;;;;;5052949;28;20209;-63
2022/11/16 07:39:09;;;;;;;6.67;2.90;;;10.20;99.90;;;;;;5055194;28;20190;-62
2022/11/16 07:41:37;;;;;;;3.33;2.83;;;10.20;99.90;;;;;;5060462;28;20668;-62
2022/11/16 07:44:03;;;;;;;5.07;2.37;;;10.20;99.90;;;;;;5059671;28;20242;-62
2022/11/16 07:46:29;;;;;;;3.10;2.23;;;10.30;99.90;;;;;;5062287;28;20212;-63
2022/11/16 07:48:56;;;;;;;4.53;2.30;;;10.40;99.90;;;;;;5052791;28;20190;-63
2022/11/16 07:51:22;;;;;;;7.03;2.80;;;10.40;99.90;;;;;;5062513;28;20245;-63
2022/11/16 07:53:51;;;;;;;7.90;3.00;;;10.20;99.90;;;;;;5066136;28;20650;-63
2022/11/16 07:56:16;;;;;;;5.90;2.87;;;10.30;99.90;;;;;;5062367;28;20209;-64
2022/11/16 07:58:42;;;;;;;8.87;2.77;;;10.30;99.90;;;;;;5059910;28;20196;-64
2022/11/16 08:01:10;;;;;;;5.27;2.77;;;10.30;99.90;;;;;;5057928;28;20646;-62
2022/11/16 08:03:37;;;;;;;4.17;2.30;;;10.30;99.90;;;;;;5051885;28;20181;-64
2022/11/16 08:06:05;;;;;;;6.23;2.97;;;10.40;99.90;;;;;;5057299;28;20190;-63
2022/11/16 08:08:32;;;;;;;7.57;2.83;;;10.50;99.90;;;;;;5054108;28;20210;-64
2022/11/16 08:11:02;;;;;;;4.27;2.13;;;10.50;99.90;;;;;;5051908;28;20635;-64
2022/11/16 08:13:30;;;;;;;3.10;1.97;;;10.50;99.90;;;;;;5050975;28;20213;-62
2022/11/16 08:16:09;;;;;;;4.93;3.70;;;10.60;99.90;;;;;;5052012;28;20625;-63
2022/11/16 08:18:35;;;;;;;6.60;2.43;;;10.50;99.90;;;;;;5068668;28;20185;-63
2022/11/16 08:21:01;;;;;;;5.43;1.87;;;10.50;99.90;;;;;;5045035;28;20515;-63
2022/11/16 08:23:28;;;;;;;2.27;1.83;;;10.60;99.90;;;;;;5051626;28;20217;-63
2022/11/16 08:26:02;;;;;;;8.00;2.50;;;10.60;99.90;;;;;;5054397;28;20182;-62
2022/11/16 08:28:29;;;;;;;6.93;2.80;;;10.70;99.90;;;;;;5083977;28;20185;-63
2022/11/16 08:30:55;;;;;;;4.03;2.37;;;10.80;99.90;;;;;;5053829;28;20214;-61
2022/11/16 08:33:23;;;;;;;3.53;2.13;;;10.70;99.90;;;;;;5067903;28;20181;-64
2022/11/16 08:35:53;;;;;;;2.67;1.80;;;10.70;99.90;;;;;;5070136;28;20279;-63
2022/11/16 08:38:19;;;;;;;4.97;1.90;;;10.70;99.90;;;;;;5054577;28;20189;-63
2022/11/16 08:40:45;;;;;;;8.97;2.43;;;10.70;99.90;;;;;;5059836;28;20189;-63
2022/11/16 08:43:11;;;;;;;4.73;1.80;;;10.80;99.90;;;;;;5057317;28;20193;-64
2022/11/16 08:45:37;;;;;;;3.30;2.47;;;10.80;99.90;;;;;;5068103;28;20264;-64
2022/11/16 08:48:04;;;;;;;4.30;1.70;;;10.80;99.90;;;;;;5055143;28;20181;-63
2022/11/16 08:50:29;;;;;;;2.30;1.53;;;10.90;99.90;;;;;;5072454;28;20185;-62
2022/11/16 08:52:58;;;;;;;4.83;1.90;;;11.00;99.90;;;;;;5069616;28;20200;-63
2022/11/16 08:55:24;;;;;;;5.57;2.07;;;11.00;99.90;;;;;;5054741;28;20194;-65
2022/11/16 08:57:51;;;;;;;2.40;1.47;;;11.00;99.90;;;;;;5063865;28;20232;-64
2022/11/16 09:00:17;;;;;;;2.57;1.90;;;11.00;99.90;;;;;;5055364;28;20192;-63
2022/11/16 09:02:43;;;;;;;7.57;2.03;;;11.10;99.90;;;;;;5050371;28;20189;-63
2022/11/16 09:05:10;;;;;;;3.70;2.90;;;11.20;99.90;;;;;;5052151;28;20801;-63
2022/11/16 09:07:38;;;;;;;4.90;2.27;;;11.20;99.90;;;;;;5061155;28;20276;-63
2022/11/16 09:10:05;;;;;;;3.37;2.17;;;11.20;99.90;;;;;;5054536;28;20300;-62
2022/11/16 09:12:33;;;;;;;3.63;1.90;;;11.10;99.90;;;;;;5060936;28;20208;-61
2022/11/16 09:14:59;;;;;;;6.43;2.17;;;11.20;99.90;;;;;;5061767;28;20188;-63
2022/11/16 09:17:24;;;;;;;5.87;1.83;;;11.20;99.90;;;;;;5052745;28;20284;-63
2022/11/16 09:19:50;;;;;;;4.20;2.00;;;11.20;99.90;;;;;;5060052;28;20273;-63
2022/11/16 09:22:16;;;;;;;4.93;1.73;;;11.30;99.90;;;;;;5065361;28;20196;-62
2022/11/16 09:24:41;;;;;;;4.57;1.70;;;11.30;99.90;;;;;;5061348;28;20194;-63
2022/11/16 09:27:07;;;;;;;6.70;2.30;;;11.30;99.90;;;;;;5058934;28;20194;-63
2022/11/16 09:29:33;;;;;;;2.93;1.97;;;11.40;99.90;;;;;;5054806;28;20197;-62
2022/11/16 09:31:58;;;;;;;5.13;1.57;;;11.40;99.90;;;;;;5058859;28;20556;-62
2022/11/16 09:34:24;;;;;;;4.70;2.63;;;11.50;99.90;;;;;;5044086;28;20704;-64
2022/11/16 09:36:50;;;;;;;4.15;1.98;;;11.60;99.90;;;;;;5053191;28;20234;-63
2022/11/16 09:39:16;;;;;;;3.05;1.63;;;11.70;99.90;;;;;;5063749;28;20185;-62
2022/11/16 09:42:00;;;;;;;5.38;1.40;;;11.80;99.90;;;;;;5062756;28;20630;-63
2022/11/16 09:44:44;;;;;;;6.88;1.85;;;11.90;99.90;;;;;;5054323;28;20197;-63
2022/11/16 09:47:17;;;;;;;1.67;1.35;;;11.90;99.90;;;;;;5063067;28;20189;-62
2022/11/16 09:49:47;;;;;;;4.05;1.75;;;11.80;99.90;;;;;;5067345;28;20181;-63
2022/11/16 09:52:25;;;;;;;3.17;1.92;;;11.80;99.90;;;;;;5060478;28;20209;-62
2022/11/16 09:54:53;;;;;;;2.63;2.40;;;11.80;99.90;;;;;;5062271;28;20173;-62
2022/11/16 09:57:25;;;;;;;12.88;2.38;;;11.90;99.90;;;;;;5060627;28;20202;-62
2022/11/16 09:59:57;;;;;;;1.95;1.70;;;12.00;99.90;;;;;;5058702;28;20188;-64
2022/11/16 10:02:33;;;;;;;2.47;1.55;;;12.00;99.90;;;;;;5054602;28;20174;-63
2022/11/16 10:05:20;;;;;;;4.78;1.60;;;11.80;99.90;;;;;;5056175;28;20198;-64
2022/11/16 10:08:03;;;;;;;2.05;1.75;;;11.90;99.90;;;;;;5059958;28;20642;-64
2022/11/16 10:10:44;;;;;;;11.57;2.35;;;11.90;99.90;;;;;;5058023;28;20269;-64
2022/11/16 10:13:20;;;;;;;4.05;1.63;;;12.10;99.90;;;;;;5053715;28;20196;-65
2022/11/16 10:16:33;;;;;;;3.20;1.70;;;12.10;99.90;;;;;;5069387;28;20173;-65
2022/11/16 10:19:04;;;;;;;4.20;1.65;;;12.20;99.90;;;;;;5061429;28;20181;-64
2022/11/16 10:21:41;;;;;;;3.50;1.73;;;12.20;99.90;;;;;;5062324;28;20190;-63
2022/11/16 10:24:30;;;;;;;9.45;2.35;;;12.20;99.90;;;;;;5058236;28;20178;-63
2022/11/16 10:27:11;;;;;;;6.82;2.13;;;12.40;99.90;;;;;;5058008;28;20177;-64
2022/11/16 10:29:40;;;;;;;3.83;2.45;;;12.40;99.90;;;;;;5056536;28;20235;-63
2022/11/16 10:32:20;;;;;;;8.45;1.80;;;12.50;99.90;;;;;;5053320;28;20265;-62
2022/11/16 10:35:11;;;;;;;4.00;1.90;;;12.60;99.90;;;;;;5060213;28;20227;-62
2022/11/16 10:37:49;;;;;;;3.55;1.42;;;12.80;99.90;;;;;;5059711;28;20209;-62
2022/11/16 10:40:26;;;;;;;4.40;1.13;;;12.60;99.90;;;;;;5064882;28;20196;-61
2022/11/16 10:43:09;;;;;;;3.60;1.65;;;12.50;99.90;;;;;;5055367;28;20647;-62
2022/11/16 10:45:48;;;;;;;7.53;1.63;;;12.60;99.90;;;;;;5056265;28;20623;-63
2022/11/16 10:48:29;;;;;;;1.08;1.08;;;12.70;99.90;;;;;;5061962;28;20173;-63
2022/11/16 10:50:55;;;;;;;2.17;1.38;;;12.80;99.90;;;;;;5051839;28;20178;-63
2022/11/16 10:53:36;;;;;;;4.60;1.63;;;12.80;99.90;;;;;;5057174;28;20550;-62
2022/11/16 10:56:14;;;;;;;2.85;1.23;;;12.80;99.90;;;;;;5057083;28;20235;-63
2022/11/16 10:59:04;;;;;;;4.15;1.55;;;12.80;99.90;;;;;;5053209;28;20204;-61
2022/11/16 11:01:37;;;;;;;3.22;1.42;;;12.70;99.90;;;;;;5059330;28;20225;-62
2022/11/16 11:04:28;;;;;;;4.88;1.73;;;12.80;99.90;;;;;;5052751;28;20186;-62
2022/11/16 11:06:57;;;;;;;9.85;4.00;;;13.00;99.90;;;;;;5053538;28;20204;-65
2022/11/16 11:09:33;;;;;;;3.78;1.45;;;13.10;99.90;;;;;;5058653;28;20256;-62
2022/11/16 11:14:57;;;;;;;5.57;1.80;;;13.20;99.90;;;;;;5060919;28;20256;-62
2022/11/16 11:17:22;;;;;;;1.80;1.15;;;13.20;99.90;;;;;;5052783;28;20202;-62
2022/11/16 11:19:57;;;;;;;1.80;1.42;;;13.30;99.90;;;;;;5058468;28;20203;-64
2022/11/16 11:22:23;;;;;;;3.35;1.85;;;13.40;99.90;;;;;;5051354;28;20188;-64
2022/11/16 11:24:49;;;;;;;6.70;1.27;;;13.60;99.90;;;;;;5057916;28;20186;-64
2022/11/16 11:27:27;;;;;;;2.90;1.38;;;13.70;99.90;;;;;;5062814;28;20232;-64
2022/11/16 11:29:57;;;;;;;1.67;1.05;;;13.70;99.90;;;;;;5054236;28;20635;-64
2022/11/16 11:32:29;;;;;;;2.42;1.08;;;13.80;99.90;;;;;;5060304;28;20272;-66
2022/11/16 11:34:58;;;;;;;3.22;1.58;;;13.70;99.90;;;;;;5055641;28;20262;-62
2022/11/16 11:37:27;;;;;;;4.57;0.90;;;13.70;99.90;;;;;;5056908;28;20209;-63
2022/11/16 11:40:17;;;;;;;1.90;0.85;;;13.60;99.90;;;;;;5055371;28;20267;-63
2022/11/16 11:42:52;;;;;;;7.43;1.90;;;13.50;99.90;;;;;;5054957;28;20186;-64
2022/11/16 11:45:20;;;;;;;6.72;1.67;;;13.60;99.90;;;;;;5053391;28;20310;-62
2022/11/16 11:48:00;;;;;;;4.03;1.65;;;13.60;99.90;;;;;;5055739;28;20240;-63
2022/11/16 11:50:48;;;;;;;7.57;2.33;;;13.50;99.90;;;;;;5067663;28;20177;-63
2022/11/16 11:53:27;;;;;;;3.25;1.23;;;13.50;99.90;;;;;;5055046;28;20193;-64
2022/11/16 11:55:59;;;;;;;4.22;1.58;;;13.50;99.90;;;;;;5069187;28;20181;-64
2022/11/16 11:58:31;;;;;;;1.17;1.08;;;13.60;99.90;;;;;;5063508;28;20199;-62
2022/11/16 12:00:57;;;;;;;4.57;1.48;;;13.70;99.90;;;;;;5058291;28;20183;-62
2022/11/16 12:04:11;;;;;;;2.50;1.30;;;13.80;99.90;;;;;;5051645;28;20273;-63
2022/11/16 12:07:03;;;;;;;2.58;1.27;;;13.80;99.90;;;;;;5054184;28;20185;-64
2022/11/16 12:09:39;;;;;;;2.10;1.40;;;14.00;99.90;;;;;;5053093;28;20189;-65
2022/11/16 12:12:28;;;;;;;1.77;1.20;;;14.10;99.90;;;;;;5057405;28;20189;-64
2022/11/16 12:15:28;;;;;;;3.63;1.95;;;14.00;99.90;;;;;;5060507;28;20189;-63
2022/11/16 12:18:17;;;;;;;4.28;1.60;;;14.00;99.90;;;;;;5057957;28;20193;-63
2022/11/16 12:21:12;;;;;;;4.03;1.08;;;14.00;99.90;;;;;;5061325;28;20194;-68
2022/11/16 12:23:56;;;;;;;3.78;1.17;;;13.90;99.90;;;;;;5061740;28;20177;-70
2022/11/16 12:26:27;;;;;;;3.55;1.50;;;13.80;99.90;;;;;;5061037;28;20552;-68
2022/11/16 12:29:18;;;;;;;4.13;1.60;;;13.90;99.90;;;;;;5054026;28;20182;-66
2022/11/16 12:31:43;;;;;;;2.88;2.35;;;13.90;99.90;;;;;;5058112;28;20185;-65
2022/11/16 12:34:33;;;;;;;1.00;1.00;;;13.90;99.90;;;;;;5058931;28;20178;-66
2022/11/16 12:37:16;;;;;;;8.38;1.83;;;14.10;99.90;;;;;;5064030;28;20201;-66
2022/11/16 12:40:03;;;;;;;2.60;1.30;;;14.10;99.90;;;;;;5063560;28;20524;-68
2022/11/16 12:43:11;;;;;;;2.88;1.20;;;14.00;99.90;;;;;;5046144;28;20300;-67
2022/11/16 12:45:52;;;;;;;4.32;1.38;;;13.90;99.90;;;;;;5071636;28;20276;-67
2022/11/16 12:48:44;;;;;;;6.13;1.85;;;13.80;99.90;;;;;;5075532;28;20545;-67
2022/11/16 12:51:19;;;;;;;4.85;1.55;;;13.90;99.90;;;;;;5056433;28;20585;-67
2022/11/16 12:54:17;;;;;;;15.48;3.28;;;13.90;99.90;;;;;;5052676;28;20526;-67
2022/11/16 12:57:12;;;;;;;3.58;1.17;;;13.90;99.90;;;;;;5052235;28;20213;-64
2022/11/16 12:59:55;;;;;;;4.90;1.35;;;13.70;99.90;;;;;;5097023;28;20182;-63
2022/11/16 13:02:34;;;;;;;6.88;1.45;;;13.60;99.90;;;;;;5060433;28;20192;-63
2022/11/16 13:05:11;;;;;;;2.05;1.33;;;13.80;99.90;;;;;;5054543;28;20523;-64
2022/11/16 13:07:43;;;;;;;2.83;1.40;;;13.80;99.90;;;;;;5051425;28;20178;-63
2022/11/16 13:10:18;;;;;;;5.32;1.55;;;13.80;99.90;;;;;;5053494;28;20166;-64
2022/11/16 13:12:47;;;;;;;3.00;1.42;;;13.80;99.90;;;;;;5056243;28;20196;-63
2022/11/16 13:15:23;;;;;;;6.13;2.08;;;13.70;99.90;;;;;;5055147;28;20634;-63
2022/11/16 13:17:59;;;;;;;3.90;1.48;;;13.70;99.90;;;;;;5060905;28;20197;-63
2022/11/16 13:20:29;;;;;;;5.38;1.40;;;13.70;99.90;;;;;;5062290;28;20178;-62
2022/11/16 13:23:37;;;;;;;2.05;1.55;;;13.80;99.90;;;;;;5051138;28;20177;-63
2022/11/16 13:26:19;;;;;;;1.55;1.10;;;13.90;99.90;;;;;;5048402;28;20208;-64
2022/11/16 13:29:15;;;;;;;6.45;1.40;;;13.90;99.90;;;;;;5051774;28;20193;-63
2022/11/16 13:32:07;;;;;;;8.10;2.40;;;13.90;99.90;;;;;;5052291;28;20547;-63
2022/11/16 13:34:36;;;;;;;2.75;1.63;;;13.80;99.90;;;;;;5054631;28;20607;-63
2022/11/16 13:37:37;;;;;;;3.38;1.52;;;13.80;99.90;;;;;;5054989;28;20669;-64
2022/11/16 13:40:03;;;;;;;8.98;1.85;;;13.80;99.90;;;;;;5052618;28;20178;-64
2022/11/16 13:42:59;;;;;;;1.80;1.35;;;13.70;99.90;;;;;;5051591;28;20701;-64
2022/11/16 13:45:32;;;;;;;7.35;2.28;;;13.60;99.90;;;;;;5066267;28;20231;-67
2022/11/16 13:48:00;;;;;;;6.80;1.35;;;13.70;99.90;;;;;;5054063;28;20544;-64
2022/11/16 13:50:37;;;;;;;2.67;1.52;;;13.70;99.90;;;;;;5054500;28;20690;-64
2022/11/16 13:53:21;;;;;;;3.22;1.83;;;13.70;99.90;;;;;;5055882;28;20181;-64